Time;durP1;ratioP1;P1;durP2;ratioP2;P2;SDS_P1;SDS_P2;PMS_P1;PMS_P2;Temp;Humidity;BMP_temperature;BMP_pressure;BME280_temperature;BME280_humidity;BME280_pressure;Samples;Min_cycle;Max_cycle;Signal;HPM_P1;HPM_P2
2022/11/07 00:04:31;;;;;;;36.55;24.20;;;;;;;0.65;84.77;100816.35;3200069;87;21126;-75
2022/11/07 00:09:23;;;;;;;37.15;25.23;;;;;;;0.72;84.73;100814.63;3286841;83;21003;-75
2022/11/07 00:14:16;;;;;;;31.05;22.85;;;;;;;0.85;85.02;100816.63;3322196;83;23174;-75
2022/11/07 00:19:09;;;;;;;35.52;26.23;;;;;;;0.96;85.01;100816.83;3337400;83;21049;-74
2022/11/07 00:24:01;;;;;;;33.45;22.65;;;;;;;1.08;85.20;100808.98;3282948;84;21061;-76
2022/11/07 00:28:52;;;;;;;32.50;22.93;;;;;;;1.21;85.53;100805.42;3303512;84;21136;-75
2022/11/07 00:33:45;;;;;;;34.38;25.23;;;;;;;1.31;85.40;100805.14;3306006;84;21005;-75
2022/11/07 00:38:36;;;;;;;31.60;23.22;;;;;;;1.41;85.52;100799.71;3336675;83;22194;-76
2022/11/07 00:43:28;;;;;;;29.37;21.85;;;;;;;1.50;85.53;100789.99;3357661;84;21041;-76
2022/11/07 00:48:19;;;;;;;33.38;22.77;;;;;;;1.61;85.83;100781.98;3270884;84;22338;-76
2022/11/07 00:53:10;;;;;;;30.05;23.65;;;;;;;1.70;85.90;100773.53;3314006;84;21035;-75
2022/11/07 00:58:02;;;;;;;30.37;21.00;;;;;;;1.78;86.03;100765.83;3322684;84;21089;-76
2022/11/07 01:08:05;;;;;;;30.97;19.67;;;;;;;2.00;86.50;100747.72;3342822;83;21014;-76
2022/11/07 01:12:57;;;;;;;29.52;20.70;;;;;;;2.12;86.93;100739.38;3358144;83;23305;-76
2022/11/07 01:17:49;;;;;;;31.33;21.25;;;;;;;2.23;87.13;100730.95;3338010;84;20938;-75
2022/11/07 01:22:40;;;;;;;26.75;19.10;;;;;;;2.35;87.32;100735.84;3299208;83;20927;-75
2022/11/07 01:27:32;;;;;;;26.65;20.60;;;;;;;2.45;87.41;100727.77;3363806;84;22103;-75
2022/11/07 01:32:23;;;;;;;30.45;19.05;;;;;;;2.55;87.58;100718.45;3330195;84;21003;-74
2022/11/07 01:37:14;;;;;;;25.10;17.57;;;;;;;2.64;87.92;100712.47;3333012;83;21018;-75
2022/11/07 01:42:06;;;;;;;23.47;18.65;;;;;;;2.77;88.32;100711.79;3258889;84;20971;-75
2022/11/07 01:47:09;;;;;;;26.85;19.55;;;;;;;2.88;88.43;100715.77;3307905;83;20998;-75
2022/11/07 01:52:09;;;;;;;30.00;18.92;;;;;;;2.98;88.60;100704.23;3327420;83;21610;-76
2022/11/07 01:57:05;;;;;;;30.50;18.75;;;;;;;3.09;88.73;100702.17;3363106;83;21038;-75
2022/11/07 02:01:58;;;;;;;27.90;19.73;;;;;;;3.18;88.78;100698.74;3308766;83;21013;-75
2022/11/07 02:06:57;;;;;;;27.90;19.42;;;;;;;3.24;88.78;100686.20;3309948;84;22179;-75
2022/11/07 02:11:49;;;;;;;26.17;17.67;;;;;;;3.32;89.12;100690.39;3322118;83;20971;-75
2022/11/07 02:16:40;;;;;;;25.30;16.85;;;;;;;3.40;89.04;100689.06;3318921;83;21638;-76
2022/11/07 02:21:43;;;;;;;26.85;18.25;;;;;;;3.47;88.96;100683.77;3310085;84;21045;-75
2022/11/07 02:26:37;;;;;;;27.85;17.92;;;;;;;3.51;89.08;100680.14;3309843;84;21571;-75
2022/11/07 02:31:28;;;;;;;28.50;18.55;;;;;;;3.60;89.33;100674.53;3331436;83;21586;-75
2022/11/07 02:36:46;;;;;;;23.95;16.45;;;;;;;3.66;89.26;100670.06;3330160;83;20966;-75
2022/11/07 02:41:39;;;;;;;22.52;16.40;;;;;;;3.71;89.31;100668.57;3363625;83;21046;-74
2022/11/07 02:46:31;;;;;;;20.85;16.57;;;;;;;3.76;89.35;100660.24;3251469;86;20963;-74
2022/11/07 02:51:23;;;;;;;25.37;17.52;;;;;;;3.81;89.40;100648.47;3225746;87;20994;-75
2022/11/07 02:56:16;;;;;;;23.15;17.27;;;;;;;3.85;89.41;100643.05;3255143;86;20995;-75
2022/11/07 03:01:07;;;;;;;30.32;19.17;;;;;;;3.91;89.62;100637.28;3264027;86;21054;-75
2022/11/07 03:05:59;;;;;;;23.57;16.73;;;;;;;3.96;89.67;100635.78;3214613;87;21201;-74
2022/11/07 03:10:51;;;;;;;24.52;17.27;;;;;;;4.00;89.71;100625.67;3221908;86;21012;-76
2022/11/07 03:15:42;;;;;;;24.55;17.32;;;;;;;4.06;89.80;100612.21;3255197;87;20963;-75
2022/11/07 03:20:33;;;;;;;23.25;17.15;;;;;;;4.10;89.94;100610.22;3230246;85;20977;-74
2022/11/07 03:25:24;;;;;;;22.07;17.02;;;;;;;4.16;90.24;100621.17;3203388;86;21108;-74
2022/11/07 03:30:16;;;;;;;24.18;16.48;;;;;;;4.21;90.26;100609.38;3326580;84;21176;-75
2022/11/07 03:35:08;;;;;;;23.57;16.55;;;;;;;4.28;90.57;100592.50;3318827;83;21006;-75
2022/11/07 03:40:00;;;;;;;22.58;17.57;;;;;;;4.33;90.59;100588.42;3307764;84;21462;-74
2022/11/07 03:45:00;;;;;;;20.45;15.93;;;;;;;4.38;90.77;100586.88;3287759;83;22379;-74
2022/11/07 03:49:52;;;;;;;23.50;16.77;;;;;;;4.43;90.74;100581.50;3171927;86;21616;-74
2022/11/07 03:54:43;;;;;;;24.90;17.60;;;;;;;4.50;91.02;100589.07;3135426;88;21609;-75
2022/11/07 03:59:35;;;;;;;24.32;17.07;;;;;;;4.58;91.43;100586.41;3191294;86;21100;-74
2022/11/07 04:04:26;;;;;;;26.52;18.60;;;;;;;4.67;91.54;100578.12;3149185;87;21047;-75
2022/11/07 04:09:17;;;;;;;24.02;17.48;;;;;;;4.73;91.39;100575.39;3198783;87;21015;-76
2022/11/07 04:19:19;;;;;;;28.50;18.15;;;;;;;4.85;91.57;100564.68;3134059;87;21098;-74
2022/11/07 04:24:11;;;;;;;26.27;18.00;;;;;;;4.91;91.71;100567.47;3198353;86;21002;-75
2022/11/07 04:29:02;;;;;;;31.05;20.35;;;;;;;4.96;91.82;100563.38;3190389;87;20975;-75
2022/11/07 04:33:54;;;;;;;28.20;19.00;;;;;;;5.07;92.04;100573.20;3223625;86;20987;-74
2022/11/07 04:38:45;;;;;;;28.50;20.60;;;;;;;5.12;91.92;100565.24;3216119;86;20994;-74
2022/11/07 04:43:36;;;;;;;30.35;19.50;;;;;;;5.19;92.30;100564.64;3221034;85;21570;-74
2022/11/07 04:48:27;;;;;;;33.15;20.62;;;;;;;5.26;92.16;100566.62;3267772;85;21067;-74
2022/11/07 04:53:19;;;;;;;30.45;20.82;;;;;;;5.34;92.77;100572.91;3200438;87;20996;-74
2022/11/07 04:58:11;;;;;;;32.33;21.45;;;;;;;5.44;92.70;100569.39;3212621;85;21053;-74
2022/11/07 05:03:03;;;;;;;30.82;19.10;;;;;;;5.50;92.79;100558.86;3194367;86;21583;-75
2022/11/07 05:07:54;;;;;;;29.80;19.07;;;;;;;5.56;92.70;100554.73;3227477;86;21123;-74
2022/11/07 05:12:46;;;;;;;36.40;21.85;;;;;;;5.57;92.52;100548.35;3275378;86;21562;-74
2022/11/07 05:17:37;;;;;;;33.02;22.90;;;;;;;5.60;92.70;100547.56;3269535;86;21480;-75
2022/11/07 05:28:07;;;;;;;33.25;22.37;;;;;;;5.72;93.42;100524.38;3197230;87;21031;-75
2022/11/07 05:33:03;;;;;;;37.73;23.85;;;;;;;5.82;93.38;100531.13;3209129;87;21026;-75
2022/11/07 05:37:44;;;;;;;36.65;22.50;;;;;;;5.87;93.42;100517.97;3279682;84;21059;-76
2022/11/07 05:42:36;;;;;;;34.83;21.48;;;;;;;5.90;93.39;100520.62;3222204;86;21000;-76
2022/11/07 05:47:27;;;;;;;39.92;24.80;;;;;;;5.97;93.53;100521.33;3206979;86;21105;-75
2022/11/07 05:52:20;;;;;;;38.88;22.58;;;;;;;6.05;93.84;100527.63;3201736;86;21725;-76
2022/11/07 05:57:11;;;;;;;39.95;24.55;;;;;;;6.15;94.01;100527.91;3232842;86;21296;-76
2022/11/07 06:02:03;;;;;;;46.70;27.02;;;;;;;6.25;94.57;100517.92;3215182;86;21019;-76
2022/11/07 06:06:54;;;;;;;44.77;26.42;;;;;;;6.34;94.35;100515.18;3269619;86;20979;-77
2022/11/07 06:11:45;;;;;;;45.15;27.27;;;;;;;6.44;94.52;100511.63;3217363;87;20985;-74
2022/11/07 06:16:36;;;;;;;48.02;27.35;;;;;;;6.51;94.28;100515.68;3227014;85;21050;-74
2022/11/07 06:21:29;;;;;;;42.83;25.70;;;;;;;6.60;94.44;100506.52;3235794;87;21552;-74
2022/11/07 06:26:20;;;;;;;41.00;23.92;;;;;;;6.68;94.44;100518.36;3277630;86;20973;-76
2022/11/07 06:31:11;;;;;;;39.03;24.23;;;;;;;6.83;94.19;100523.98;3195411;87;21579;-76
2022/11/07 06:36:10;;;;;;;44.42;26.20;;;;;;;6.89;94.72;100521.13;3245333;86;22339;-76
2022/11/07 06:41:12;;;;;;;36.93;25.10;;;;;;;6.89;94.72;100521.13;3233603;85;20992;-76
2022/11/07 06:46:08;;;;;;;47.05;26.37;;;;;;;7.07;94.83;100543.61;3230781;86;21227;-77
2022/11/07 06:51:01;;;;;;;44.58;27.45;;;;;;;7.07;94.83;100543.61;3272709;85;21239;-76
2022/11/07 06:55:54;;;;;;;42.70;25.60;;;;;;;7.13;94.72;100545.48;3219391;86;21058;-77
2022/11/07 07:00:45;;;;;;;37.83;24.87;;;;;;;7.17;94.71;100543.05;3305561;85;21062;-76
2022/11/07 07:05:36;;;;;;;46.15;27.52;;;;;;;7.21;94.86;100533.23;3230986;85;20978;-75
2022/11/07 07:10:28;;;;;;;46.48;27.70;;;;;;;7.25;94.70;100536.78;3286324;85;21582;-76
2022/11/07 07:15:19;;;;;;;47.90;26.25;;;;;;;7.29;94.74;100528.69;3254061;85;21044;-76
2022/11/07 07:20:11;;;;;;;46.80;27.90;;;;;;;7.36;95.05;100540.95;3233649;86;21061;-77
2022/11/07 07:25:07;;;;;;;44.13;28.57;;;;;;;7.41;95.10;100532.91;3259665;86;20993;-76
2022/11/07 07:30:04;;;;;;;45.35;29.35;;;;;;;7.46;95.00;100527.44;3258685;85;21023;-76
2022/11/07 07:34:55;;;;;;;43.28;28.20;;;;;;;7.53;94.91;100525.48;3238445;86;21568;-76
2022/11/07 07:39:46;;;;;;;44.33;28.30;;;;;;;7.61;94.73;100525.23;3264023;84;20974;-77
2022/11/07 07:44:38;;;;;;;44.07;29.17;;;;;;;7.69;94.86;100529.73;3268373;86;21600;-76
2022/11/07 07:49:29;;;;;;;41.48;30.75;;;;;;;7.73;94.97;100523.39;3189865;86;21400;-76
2022/11/07 07:54:20;;;;;;;44.00;30.83;;;;;;;7.80;94.94;100516.67;3251663;87;21918;-77
2022/11/07 07:59:11;;;;;;;43.30;27.97;;;;;;;7.91;94.87;100513.92;3279811;83;21599;-77
2022/11/07 08:04:02;;;;;;;38.85;27.27;;;;;;;7.97;94.57;100512.75;3333433;84;21215;-76
2022/11/07 08:08:53;;;;;;;36.60;28.23;;;;;;;8.03;94.43;100517.23;3313341;83;21476;-77
2022/11/07 08:13:44;;;;;;;35.68;25.65;;;;;;;8.10;94.30;100515.25;3273003;83;20943;-76
2022/11/07 08:18:38;;;;;;;36.50;26.82;;;;;;;8.16;94.27;100507.61;3349150;84;22460;-75
2022/11/07 08:23:30;;;;;;;39.30;26.85;;;;;;;8.20;94.16;100508.55;3285860;84;22083;-74
2022/11/07 08:28:31;;;;;;;38.95;25.85;;;;;;;8.28;93.94;100503.54;3276624;83;21058;-75
2022/11/07 08:33:23;;;;;;;32.05;22.82;;;;;;;8.50;93.75;100507.55;3325563;84;21539;-73
2022/11/07 08:38:14;;;;;;;32.08;24.30;;;;;;;8.74;93.29;100508.05;3332833;83;21037;-74
2022/11/07 08:43:05;;;;;;;31.35;22.45;;;;;;;8.94;93.33;100508.48;3355452;84;20950;-74
2022/11/07 08:48:00;;;;;;;29.07;21.85;;;;;;;9.11;92.67;100503.62;3360764;83;21575;-74
2022/11/07 08:52:51;;;;;;;33.65;24.23;;;;;;;9.34;92.47;100507.08;3301435;83;21097;-74
2022/11/07 08:57:42;;;;;;;32.55;22.17;;;;;;;9.44;92.08;100506.38;3324001;83;21014;-74
2022/11/07 09:02:33;;;;;;;33.40;22.15;;;;;;;9.54;91.91;100494.03;3336424;83;21057;-73
2022/11/07 09:07:25;;;;;;;32.25;23.60;;;;;;;9.63;91.88;100497.64;3380149;83;21752;-73
2022/11/07 09:12:21;;;;;;;32.80;22.27;;;;;;;9.69;91.90;100501.63;3291545;83;21603;-77
2022/11/07 09:17:13;;;;;;;28.13;21.87;;;;;;;9.76;91.85;100497.42;3315814;84;21521;-74
2022/11/07 09:22:04;;;;;;;27.73;21.10;;;;;;;9.82;91.84;100494.52;3295415;84;21475;-75
2022/11/07 09:26:56;;;;;;;26.50;20.20;;;;;;;9.97;91.64;100496.48;3321253;83;21149;-73
2022/11/07 09:31:47;;;;;;;24.43;19.27;;;;;;;10.08;91.14;100489.71;3375114;83;21108;-73
2022/11/07 09:36:39;;;;;;;28.07;19.25;;;;;;;10.12;91.18;100482.84;3289349;83;23234;-75
2022/11/07 09:41:57;;;;;;;24.10;18.70;;;;;;;10.23;90.61;100481.30;3279975;85;20996;-74
2022/11/07 09:47:18;;;;;;;23.38;18.65;;;;;;;10.36;90.88;100478.91;3216794;86;21074;-74
2022/11/07 09:52:23;;;;;;;23.07;18.70;;;;;;;10.60;90.12;100467.52;3297048;85;21077;-73
2022/11/07 09:57:17;;;;;;;22.30;16.93;;;;;;;10.67;89.78;100464.58;3266988;86;20971;-73
2022/11/07 10:02:15;;;;;;;25.32;18.50;;;;;;;10.59;89.77;100464.48;3351455;83;21200;-74
2022/11/07 10:07:24;;;;;;;24.27;18.20;;;;;;;10.58;90.12;100460.13;3373914;83;22430;-74
2022/11/07 10:12:42;;;;;;;23.85;19.57;;;;;;;10.53;89.92;100461.80;3332665;84;20993;-75
2022/11/07 10:18:15;;;;;;;23.38;17.98;;;;;;;10.48;90.05;100457.86;3316568;83;22526;-74
2022/11/07 10:23:25;;;;;;;25.32;18.30;;;;;;;10.51;90.15;100447.91;3340005;84;21622;-75
2022/11/07 10:28:19;;;;;;;22.67;16.82;;;;;;;10.55;89.84;100441.92;3345399;83;21198;-74
2022/11/07 10:33:46;;;;;;;22.20;18.20;;;;;;;10.58;89.91;100435.43;3345906;83;21001;-72
2022/11/07 10:38:41;;;;;;;26.70;17.12;;;;;;;10.57;89.81;100427.20;3348346;84;21571;-74
2022/11/07 10:43:36;;;;;;;22.48;17.35;;;;;;;10.65;89.87;100424.25;3387933;82;21541;-73
2022/11/07 10:48:28;;;;;;;19.65;16.17;;;;;;;10.75;89.77;100416.55;3346270;84;20958;-73
2022/11/07 10:53:23;;;;;;;20.57;16.20;;;;;;;10.88;89.41;100412.81;3299700;84;22531;-73
2022/11/07 10:58:24;;;;;;;21.82;15.95;;;;;;;10.97;88.95;100410.75;3314105;84;20996;-74
2022/11/07 11:03:20;;;;;;;22.45;17.73;;;;;;;11.01;89.12;100419.02;3364935;83;20993;-75
2022/11/07 11:08:18;;;;;;;18.33;14.53;;;;;;;11.01;88.89;100420.75;3355016;83;20951;-75
2022/11/07 11:13:32;;;;;;;22.37;17.25;;;;;;;10.92;89.12;100421.52;3317869;84;20982;-75
2022/11/07 11:18:24;;;;;;;19.98;15.28;;;;;;;10.84;89.09;100412.78;3359150;84;22262;-76
2022/11/07 11:23:23;;;;;;;20.60;15.78;;;;;;;10.73;89.06;100410.47;3352278;83;20978;-76
2022/11/07 11:28:26;;;;;;;17.02;12.95;;;;;;;10.76;89.20;100415.71;3302904;84;21105;-75
2022/11/07 11:33:26;;;;;;;20.50;15.15;;;;;;;10.77;89.02;100415.73;3347088;83;20985;-73
2022/11/07 11:38:24;;;;;;;18.37;13.85;;;;;;;10.78;88.94;100417.46;3368716;83;21223;-73
2022/11/07 11:43:26;;;;;;;17.32;13.28;;;;;;;11.05;88.47;100413.01;3304003;83;21480;-73
2022/11/07 11:48:32;;;;;;;18.10;12.50;;;;;;;11.33;87.74;100414.56;3344944;84;21022;-73
2022/11/07 11:53:24;;;;;;;17.02;12.75;;;;;;;11.49;87.24;100416.01;3329502;84;21502;-73
2022/11/07 11:58:53;;;;;;;16.32;11.68;;;;;;;11.48;86.76;100425.97;3403312;83;21061;-73
2022/11/07 12:04:01;;;;;;;13.88;11.10;;;;;;;11.38;86.76;100427.19;3254427;85;21009;-73
2022/11/07 12:09:12;;;;;;;17.95;11.03;;;;;;;11.37;86.26;100429.34;3265547;85;22055;-74
2022/11/07 12:14:32;;;;;;;14.58;10.70;;;;;;;11.31;85.79;100425.39;3249810;85;20990;-73
2022/11/07 12:19:31;;;;;;;12.55;9.28;;;;;;;11.36;85.18;100422.41;3228596;85;21010;-74
2022/11/07 12:24:37;;;;;;;10.82;8.95;;;;;;;11.39;84.73;100421.14;3276681;85;21003;-75
2022/11/07 12:30:04;;;;;;;12.60;8.98;;;;;;;11.35;83.92;100418.05;3232410;86;21731;-75
2022/11/07 12:35:27;;;;;;;11.97;8.73;;;;;;;11.33;83.54;100424.11;3248294;85;21106;-74
2022/11/07 12:40:49;;;;;;;11.18;8.83;;;;;;;11.36;83.28;100425.45;3323640;84;20917;-75
2022/11/07 12:45:58;;;;;;;9.28;7.17;;;;;;;11.30;83.21;100431.44;3319584;84;21010;-75
2022/11/07 12:51:02;;;;;;;9.38;7.42;;;;;;;11.34;82.38;100434.94;3357650;84;21555;-74
2022/11/07 12:56:10;;;;;;;9.93;7.83;;;;;;;11.55;81.39;100437.73;3367831;83;21043;-75
2022/11/07 13:01:03;;;;;;;10.40;7.45;;;;;;;11.78;80.82;100431.41;3366030;83;22372;-74
2022/11/07 13:06:18;;;;;;;11.85;7.97;;;;;;;11.72;79.87;100432.68;3372380;83;21488;-75
2022/11/07 13:11:21;;;;;;;8.58;6.90;;;;;;;11.58;79.83;100433.00;3341608;84;21433;-73
2022/11/07 13:16:32;;;;;;;11.68;7.75;;;;;;;11.36;79.33;100434.12;3330718;84;20978;-73
2022/11/07 13:21:23;;;;;;;11.48;9.15;;;;;;;11.15;79.50;100427.41;3316157;84;21069;-73
2022/11/07 13:26:26;;;;;;;9.75;7.78;;;;;;;11.11;79.27;100436.05;3348268;83;21180;-73
2022/11/07 13:31:39;;;;;;;9.13;6.87;;;;;;;11.17;79.50;100442.16;3356252;84;21069;-73
2022/11/07 13:36:33;;;;;;;9.95;7.15;;;;;;;11.22;78.78;100446.13;3212448;86;22238;-74
2022/11/07 13:41:43;;;;;;;10.38;7.05;;;;;;;11.13;78.54;100453.84;3215850;86;21092;-77
2022/11/07 13:59:02;;;;;;;;;;;;;;;;;;;;;
2022/11/07 14:28:00;;;;;;;;;;;;;;;;;;;;;
2022/11/07 14:39:59;;;;;;;11.30;8.08;;;;;;;10.12;79.81;100477.64;2651520;102;21260;-74
2022/11/07 14:44:59;;;;;;;9.58;6.70;;;;;;;10.03;79.80;100477.51;2618345;107;21144;-74
2022/11/07 14:49:57;;;;;;;9.05;7.10;;;;;;;9.99;80.02;100490.01;2596820;107;21273;-74
2022/11/07 14:55:10;;;;;;;11.48;7.47;;;;;;;9.91;80.11;100486.87;2601731;105;21206;-75
2022/11/07 15:34:10;;;;;;;;;;;;;;;;;;;;;
2022/11/07 15:39:38;;;;;;;11.28;9.00;;;;;;;9.70;80.42;100516.38;2758846;100;21108;-76
2022/11/07 15:51:34;;;;;;;;;;;;;;;;;;;;;
2022/11/07 15:57:20;;;;;;;;;;;;;;;;;;;;;
2022/11/07 16:02:45;;;;;;;8.50;7.03;;;;;;;9.69;80.06;100536.68;2841312;97;21205;-75
2022/11/07 16:07:57;;;;;;;7.53;6.42;;;;;;;9.70;79.50;100534.11;2829148;97;21024;-74
2022/11/07 16:24:56;;;;;;;;;;;;;;;;;;;;;
2022/11/07 16:42:21;;;;;;;11.68;8.48;;;;;;;9.72;79.59;100560.11;2755720;99;21231;-75
2022/11/07 16:47:56;;;;;;;11.12;8.68;;;;;;;9.70;79.47;100564.41;2770710;99;21155;-75
2022/11/07 16:53:58;;;;;;;;;;;;;;;;;;;;;
2022/11/07 16:58:43;;;;;;;10.18;7.58;;;;;;;9.70;79.58;100581.27;2825179;99;21070;-72
2022/11/07 17:03:34;;;;;;;10.63;8.55;;;;;;;9.70;79.10;100589.06;2865094;97;21193;-72
2022/11/07 17:08:30;;;;;;;10.65;7.75;;;;;;;9.70;79.63;100589.06;2849341;98;21336;-71
2022/11/07 17:13:22;;;;;;;11.97;8.60;;;;;;;9.69;79.48;100592.09;2883220;97;21072;-71
2022/11/07 17:18:25;;;;;;;11.73;9.65;;;;;;;9.70;79.52;100586.47;2890729;97;21078;-71
2022/11/07 17:23:17;;;;;;;10.75;7.90;;;;;;;9.69;79.48;100586.00;2876495;96;39609;-71
2022/11/07 17:28:09;;;;;;;10.28;8.83;;;;;;;9.68;79.60;100598.55;2971533;90;21634;-72
2022/11/07 17:33:02;;;;;;;11.43;8.43;;;;;;;9.66;79.77;100597.22;3059570;93;21115;-71
2022/11/07 17:37:53;;;;;;;11.80;8.80;;;;;;;9.65;79.73;100597.19;3137031;88;21065;-71
2022/11/07 17:42:44;;;;;;;12.47;9.55;;;;;;;9.61;79.81;100590.20;3154246;86;20998;-71
2022/11/07 17:47:36;;;;;;;10.18;9.08;;;;;;;9.61;79.87;100596.25;3248372;84;21177;-72
2022/11/07 17:52:27;;;;;;;13.70;9.28;;;;;;;9.61;79.90;100592.80;3255406;84;20977;-72
2022/11/07 17:57:18;;;;;;;13.03;10.95;;;;;;;9.60;79.98;100596.22;3275823;85;20998;-71
2022/11/07 18:02:17;;;;;;;12.98;9.68;;;;;;;9.57;79.98;100601.34;3258310;84;21178;-71
2022/11/07 18:07:12;;;;;;;16.45;12.15;;;;;;;9.59;80.25;100611.36;3234478;84;21467;-73
2022/11/07 18:17:42;;;;;;;16.57;11.70;;;;;;;9.54;80.13;100599.15;3148690;86;21628;-73
2022/11/07 18:22:35;;;;;;;13.05;9.95;;;;;;;9.53;80.12;100593.52;3128819;87;21383;-73
2022/11/07 18:27:27;;;;;;;10.98;9.03;;;;;;;9.53;80.33;100597.41;3098235;89;21571;-70
2022/11/07 18:38:28;;;;;;;11.10;9.05;;;;;;;9.49;80.66;100595.58;3017178;92;21105;-74
2022/11/07 18:43:20;;;;;;;13.08;9.45;;;;;;;9.43;80.83;100605.86;2984900;92;20993;-72
2022/11/07 18:48:34;;;;;;;13.20;9.45;;;;;;;9.41;80.82;100608.85;3012759;92;21051;-72
2022/11/07 18:53:28;;;;;;;12.60;9.43;;;;;;;9.41;81.19;100623.13;3029233;91;21133;-71
2022/11/07 18:58:20;;;;;;;12.50;8.88;;;;;;;9.36;81.31;100614.37;3085386;90;21048;-72
2022/11/07 19:08:37;;;;;;;11.73;9.85;;;;;;;9.28;81.60;100624.59;3059661;91;21057;-72
2022/11/07 19:13:29;;;;;;;11.93;9.55;;;;;;;9.25;81.65;100633.61;3140539;85;22749;-71
2022/11/07 19:18:21;;;;;;;12.80;9.80;;;;;;;9.14;81.74;100632.08;3188968;86;21011;-73
2022/11/07 19:23:13;;;;;;;13.60;10.15;;;;;;;8.99;81.87;100631.73;3277879;85;21016;-72
2022/11/07 19:28:06;;;;;;;12.33;10.58;;;;;;;8.89;81.93;100629.38;3230438;86;21016;-72
2022/11/07 19:32:57;;;;;;;11.65;9.33;;;;;;;8.81;81.98;100632.63;3224309;84;21521;-72
2022/11/07 19:37:48;;;;;;;12.33;8.75;;;;;;;8.69;82.18;100639.30;3254227;84;21101;-73
2022/11/07 19:42:40;;;;;;;11.80;8.53;;;;;;;8.56;82.41;100645.01;3182209;86;21086;-72
2022/11/07 19:47:31;;;;;;;17.12;11.00;;;;;;;8.51;82.62;100651.79;3265305;86;21039;-72
2022/11/07 19:52:22;;;;;;;12.37;9.95;;;;;;;8.50;82.76;100653.95;3237673;86;21001;-71
2022/11/07 19:57:15;;;;;;;15.03;9.90;;;;;;;8.50;82.92;100651.36;3247106;86;21528;-72
2022/11/07 20:02:10;;;;;;;16.97;10.20;;;;;;;8.52;83.03;100654.86;3265583;86;22166;-75
2022/11/07 20:07:02;;;;;;;15.63;10.32;;;;;;;8.53;83.19;100654.89;3279537;85;21101;-73
2022/11/07 20:11:53;;;;;;;11.73;9.78;;;;;;;8.54;83.27;100653.17;3211623;86;21043;-73
2022/11/07 20:16:44;;;;;;;15.40;10.72;;;;;;;8.52;83.31;100653.56;3196736;86;21078;-73
2022/11/07 20:21:36;;;;;;;13.05;10.53;;;;;;;8.49;83.54;100653.05;3252402;86;21042;-73
2022/11/07 20:26:30;;;;;;;13.45;10.05;;;;;;;8.44;83.69;100658.56;3234720;86;20993;-73
2022/11/07 20:31:25;;;;;;;16.42;10.00;;;;;;;8.37;83.71;100652.31;3233059;85;21004;-72
2022/11/07 20:36:18;;;;;;;12.03;9.73;;;;;;;8.27;83.60;100654.20;3255999;86;21523;-73
2022/11/07 20:41:11;;;;;;;11.50;9.25;;;;;;;8.17;83.83;100653.50;3247838;84;21269;-72
2022/11/07 20:46:10;;;;;;;14.28;10.95;;;;;;;8.11;83.85;100658.54;3237687;84;21003;-73
2022/11/07 20:51:12;;;;;;;15.72;9.68;;;;;;;8.09;84.14;100654.61;3248588;85;22044;-74
2022/11/07 20:56:05;;;;;;;17.90;10.43;;;;;;;8.10;84.31;100655.48;3228977;86;21030;-73
2022/11/07 21:00:57;;;;;;;10.53;9.23;;;;;;;8.07;84.38;100656.72;3234109;85;22546;-72
2022/11/07 21:05:50;;;;;;;10.75;9.23;;;;;;;8.04;84.59;100659.22;3213702;86;21131;-74
2022/11/07 21:10:52;;;;;;;11.25;9.10;;;;;;;8.05;84.69;100653.18;3258872;84;21129;-73
2022/11/07 21:15:44;;;;;;;13.13;9.60;;;;;;;8.08;84.76;100653.27;3240122;86;21561;-74
2022/11/07 21:20:37;;;;;;;13.28;9.40;;;;;;;8.08;84.68;100653.27;3226673;86;21746;-74
2022/11/07 21:25:29;;;;;;;14.40;10.63;;;;;;;7.98;84.46;100664.69;3244733;84;21290;-73
2022/11/07 21:30:20;;;;;;;13.25;11.45;;;;;;;7.89;84.59;100664.45;3274462;84;21045;-74
2022/11/07 21:35:13;;;;;;;17.35;12.20;;;;;;;7.81;84.56;100672.41;3213293;84;21035;-73
2022/11/07 21:40:06;;;;;;;14.00;10.25;;;;;;;7.74;84.95;100663.59;3228002;85;21107;-73
2022/11/07 21:44:57;;;;;;;15.38;10.78;;;;;;;7.71;84.77;100666.52;3232903;86;21032;-73
2022/11/07 21:49:51;;;;;;;17.37;13.10;;;;;;;7.68;85.00;100670.33;3228565;84;21001;-74
2022/11/07 21:54:44;;;;;;;14.45;11.80;;;;;;;7.69;85.14;100657.44;3289988;84;21239;-73
2022/11/07 21:59:48;;;;;;;14.98;12.75;;;;;;;7.71;85.06;100662.62;3296224;85;20982;-73
2022/11/07 22:04:35;;;;;;;13.88;10.88;;;;;;;7.66;85.06;100656.05;3211684;86;21440;-73
2022/11/07 22:09:26;;;;;;;14.65;11.10;;;;;;;7.60;84.92;100655.47;3225538;86;21092;-74
2022/11/07 22:14:20;;;;;;;18.27;12.20;;;;;;;7.55;85.12;100649.28;3201231;86;21050;-73
2022/11/07 22:19:12;;;;;;;12.80;10.82;;;;;;;7.27;84.97;100648.03;3227416;86;21458;-74
2022/11/07 22:24:03;;;;;;;16.93;12.07;;;;;;;7.27;84.97;100648.03;3265583;85;21146;-74
2022/11/07 22:28:55;;;;;;;14.00;11.75;;;;;;;7.19;84.94;100661.61;3266894;86;22663;-74
2022/11/07 22:33:47;;;;;;;15.98;11.55;;;;;;;7.18;85.37;100647.34;3257373;85;21090;-74
2022/11/07 22:38:39;;;;;;;11.68;9.83;;;;;;;7.18;85.37;100647.34;3269800;84;21516;-74
2022/11/07 22:43:31;;;;;;;15.13;11.57;;;;;;;7.10;85.00;100656.17;3234971;85;21708;-72
2022/11/07 22:48:22;;;;;;;15.98;11.38;;;;;;;7.10;85.00;100656.17;3245605;84;22402;-76
2022/11/07 22:53:13;;;;;;;14.93;10.93;;;;;;;6.82;84.96;100648.85;3227087;85;21249;-73
2022/11/07 22:58:05;;;;;;;13.98;11.20;;;;;;;6.68;84.92;100653.58;3259222;85;21056;-73
2022/11/07 23:02:57;;;;;;;13.85;11.08;;;;;;;6.58;84.96;100661.89;3252659;84;20959;-73
2022/11/07 23:07:51;;;;;;;13.83;11.10;;;;;;;6.58;84.96;100661.89;3232690;85;21017;-73
2022/11/07 23:12:42;;;;;;;15.48;11.78;;;;;;;6.48;84.97;100660.70;3254589;85;21407;-75
2022/11/07 23:17:39;;;;;;;15.32;12.00;;;;;;;6.36;84.91;100655.13;3266387;84;22317;-73
2022/11/07 23:22:30;;;;;;;16.12;10.95;;;;;;;6.24;84.53;100659.88;3274650;84;21292;-73
2022/11/07 23:27:21;;;;;;;18.23;12.40;;;;;;;6.16;84.77;100666.50;3258588;84;20946;-72
2022/11/07 23:32:12;;;;;;;15.70;11.80;;;;;;;6.16;85.06;100662.20;3223549;84;21845;-72
2022/11/07 23:37:16;;;;;;;14.75;12.10;;;;;;;6.26;85.55;100663.38;3276076;85;21057;-73
2022/11/07 23:42:10;;;;;;;15.40;11.30;;;;;;;6.36;85.78;100665.88;3225896;84;22095;-72
2022/11/07 23:52:12;;;;;;;12.88;11.55;;;;;;;6.55;86.06;100669.95;3246987;85;21070;-74
2022/11/07 23:57:03;;;;;;;13.18;11.33;;;;;;;6.61;86.05;100671.43;3248770;85;21022;-72
